createdAt,value
2023-12-30T00:00:23.426Z,23.05
2023-12-30T00:01:25.297Z,23.42
2023-12-30T00:02:27.291Z,23.38
2023-12-30T00:03:28.992Z,23.11
2023-12-30T00:04:30.888Z,23.31
2023-12-30T00:05:32.712Z,23.27
2023-12-30T00:06:35.474Z,23.09
2023-12-30T00:07:37.184Z,23.34
2023-12-30T00:08:38.911Z,23.15
2023-12-30T00:09:41.441Z,23.31
2023-12-30T00:10:43.308Z,23.65
2023-12-30T00:11:45.274Z,23.29
2023-12-30T00:12:47.048Z,23.64
2023-12-30T00:13:48.897Z,23.40
2023-12-30T00:14:50.644Z,23.65
2023-12-30T00:15:52.719Z,23.53
2023-12-30T00:16:54.484Z,23.24
2023-12-30T00:17:56.354Z,23.41
2023-12-30T00:18:58.568Z,23.69
2023-12-30T00:20:00.706Z,23.55
2023-12-30T00:21:02.578Z,23.50
2023-12-30T00:22:04.599Z,23.31
2023-12-30T00:23:06.441Z,23.60
2023-12-30T00:24:08.442Z,23.56
2023-12-30T00:25:11.540Z,23.56
2023-12-30T00:26:23.798Z,23.58
2023-12-30T00:27:39.296Z,23.54
2023-12-30T00:28:41.016Z,23.58
2023-12-30T00:29:42.852Z,23.24
2023-12-30T00:30:44.820Z,23.41
2023-12-30T00:31:47.024Z,23.56
2023-12-30T00:32:49.016Z,23.75
2023-12-30T00:33:52.411Z,23.68
2023-12-30T00:34:54.303Z,23.65
2023-12-30T00:35:56.120Z,23.39
2023-12-30T00:36:57.855Z,23.75
2023-12-30T00:37:59.583Z,23.44
2023-12-30T00:39:01.343Z,23.28
2023-12-30T00:40:03.362Z,23.56
2023-12-30T00:41:05.166Z,23.51
2023-12-30T00:42:06.949Z,23.55
2023-12-30T00:43:08.749Z,23.46
2023-12-30T00:44:11.875Z,23.59
2023-12-30T00:45:13.664Z,23.45
2023-12-30T00:46:15.661Z,23.48
2023-12-30T00:47:18.550Z,23.79
2023-12-30T00:48:20.449Z,23.81
2023-12-30T00:49:22.293Z,23.33
2023-12-30T00:50:24.188Z,23.60
2023-12-30T00:51:26.370Z,23.50
2023-12-30T00:52:28.162Z,23.70
2023-12-30T00:53:30.454Z,23.69
2023-12-30T00:54:38.283Z,23.56
2023-12-30T00:55:45.874Z,23.39
2023-12-30T00:56:47.671Z,23.80
2023-12-30T00:57:49.471Z,23.50
2023-12-30T00:58:51.802Z,23.54
2023-12-30T00:59:53.511Z,23.40
2023-12-30T01:00:55.333Z,23.63
2023-12-30T01:01:57.147Z,23.52
2023-12-30T01:02:59.035Z,23.72
2023-12-30T01:04:00.994Z,23.47
2023-12-30T01:05:03.237Z,23.66
2023-12-30T01:06:05.293Z,23.55
2023-12-30T01:07:07.170Z,23.61
2023-12-30T01:08:08.925Z,23.43
2023-12-30T01:09:10.691Z,23.67
2023-12-30T01:10:12.415Z,23.62
2023-12-30T01:11:14.377Z,23.71
2023-12-30T01:12:16.197Z,23.55
2023-12-30T01:13:17.999Z,23.84
2023-12-30T01:14:19.808Z,23.61
2023-12-30T01:15:21.698Z,23.85
2023-12-30T01:16:23.473Z,23.62
2023-12-30T01:17:25.341Z,23.81
2023-12-30T01:18:27.244Z,23.86
2023-12-30T01:19:29.167Z,23.75
2023-12-30T01:20:31.758Z,23.88
2023-12-30T01:21:33.518Z,23.89
2023-12-30T01:22:35.808Z,23.65
2023-12-30T01:23:37.589Z,23.67
2023-12-30T01:24:39.379Z,23.91
2023-12-30T01:25:43.397Z,23.89
2023-12-30T01:26:45.415Z,23.82
2023-12-30T01:27:47.401Z,23.80
2023-12-30T01:28:49.191Z,23.85
2023-12-30T01:29:50.968Z,23.91
2023-12-30T01:30:53.402Z,23.81
2023-12-30T01:31:55.193Z,23.84
2023-12-30T01:32:57.118Z,23.96
2023-12-30T01:33:59.237Z,23.89
2023-12-30T01:35:01.450Z,23.82
2023-12-30T01:36:04.227Z,23.84
2023-12-30T01:37:06.003Z,23.77
2023-12-30T01:38:07.722Z,23.92
2023-12-30T01:39:09.507Z,24.13
2023-12-30T01:40:11.510Z,23.75
2023-12-30T01:41:13.302Z,23.72
2023-12-30T01:42:15.216Z,23.89
2023-12-30T01:43:27.814Z,23.76
2023-12-30T01:44:29.601Z,23.93
2023-12-30T01:45:31.375Z,23.89
2023-12-30T01:46:33.924Z,23.98
2023-12-30T01:47:37.302Z,23.74
2023-12-30T01:48:39.847Z,23.78
2023-12-30T01:49:42.278Z,23.77
2023-12-30T01:50:44.412Z,24.10
2023-12-30T01:51:48.693Z,24.03
2023-12-30T01:52:52.018Z,24.02
2023-12-30T01:53:55.811Z,23.86
2023-12-30T01:54:57.844Z,23.97
2023-12-30T01:56:00.111Z,23.75
2023-12-30T01:57:03.953Z,24.10
2023-12-30T01:58:05.799Z,23.69
2023-12-30T01:59:07.819Z,23.85
2023-12-30T02:00:11.859Z,23.80
2023-12-30T02:01:16.965Z,24.13
2023-12-30T02:02:18.965Z,23.78
2023-12-30T02:03:23.109Z,24.02
2023-12-30T02:04:26.033Z,23.73
2023-12-30T02:05:29.128Z,24.00
2023-12-30T02:06:30.870Z,24.03
2023-12-30T02:07:32.730Z,23.95
2023-12-30T02:08:34.774Z,23.80
2023-12-30T02:09:39.915Z,24.06
2023-12-30T02:10:44.020Z,23.86
2023-12-30T02:11:45.835Z,24.09
2023-12-30T02:12:47.778Z,24.09
2023-12-30T02:13:50.096Z,24.00
2023-12-30T02:14:51.962Z,23.51
2023-12-30T02:15:53.870Z,23.87
2023-12-30T02:16:55.656Z,24.05
2023-12-30T02:17:57.896Z,23.96
2023-12-30T02:18:59.905Z,23.82
2023-12-30T02:20:02.270Z,24.00
2023-12-30T02:21:04.325Z,24.00
2023-12-30T02:22:06.128Z,24.15
2023-12-30T02:23:07.956Z,23.95
2023-12-30T02:24:09.749Z,24.29
2023-12-30T02:25:12.010Z,24.07
2023-12-30T02:26:13.814Z,23.88
2023-12-30T02:27:17.458Z,24.11
2023-12-30T02:28:19.163Z,23.89
2023-12-30T02:29:20.857Z,23.96
2023-12-30T02:30:25.353Z,23.90
2023-12-30T02:31:28.191Z,24.15
2023-12-30T02:32:30.032Z,23.91
2023-12-30T02:33:31.808Z,24.15
2023-12-30T02:34:33.681Z,24.20
2023-12-30T02:35:35.699Z,23.96
2023-12-30T02:36:37.420Z,24.13
2023-12-30T02:37:39.289Z,24.30
2023-12-30T02:38:41.182Z,24.21
2023-12-30T02:39:42.944Z,24.12
2023-12-30T02:40:47.867Z,24.45
2023-12-30T02:41:49.695Z,24.13
2023-12-30T02:42:51.685Z,24.11
2023-12-30T02:44:01.836Z,24.17
2023-12-30T02:45:04.977Z,24.74
2023-12-30T02:46:06.752Z,24.08
2023-12-30T02:47:08.554Z,24.04
2023-12-30T02:48:10.510Z,24.01
2023-12-30T02:49:12.439Z,23.89
2023-12-30T02:50:14.233Z,24.12
2023-12-30T02:51:16.950Z,23.93
2023-12-30T02:52:18.739Z,24.13
2023-12-30T02:53:20.468Z,24.08
2023-12-30T02:54:22.199Z,24.01
2023-12-30T02:55:23.938Z,24.25
2023-12-30T02:56:28.711Z,24.13
2023-12-30T02:57:30.560Z,24.06
2023-12-30T02:58:32.294Z,24.24
2023-12-30T02:59:34.364Z,23.88
2023-12-30T03:00:36.641Z,24.21
2023-12-30T03:01:39.867Z,24.21
2023-12-30T03:02:42.812Z,24.21
2023-12-30T03:03:44.815Z,24.10
2023-12-30T03:04:46.682Z,24.36
2023-12-30T03:05:48.558Z,24.08
2023-12-30T03:06:50.576Z,23.98
2023-12-30T03:07:52.337Z,24.10
2023-12-30T03:08:54.614Z,24.35
2023-12-30T03:09:56.678Z,24.39
2023-12-30T03:10:58.699Z,24.12
2023-12-30T03:12:00.486Z,24.00
2023-12-30T03:13:02.633Z,24.11
2023-12-30T03:14:06.082Z,24.30
2023-12-30T03:15:08.421Z,24.38
2023-12-30T03:16:17.521Z,24.20
2023-12-30T03:17:20.188Z,24.06
2023-12-30T03:18:21.958Z,24.19
2023-12-30T03:19:23.856Z,24.13
2023-12-30T03:20:25.591Z,24.00
2023-12-30T03:21:27.522Z,24.13
2023-12-30T03:22:29.513Z,24.08
2023-12-30T03:23:31.378Z,24.13
2023-12-30T03:24:33.072Z,24.13
2023-12-30T03:25:34.860Z,24.19
2023-12-30T03:26:36.641Z,24.14
2023-12-30T03:27:38.594Z,24.21
2023-12-30T03:28:40.575Z,24.28
2023-12-30T03:29:44.464Z,24.25
2023-12-30T03:30:47.046Z,24.01
2023-12-30T03:31:48.944Z,24.12
2023-12-30T03:32:50.698Z,24.40
2023-12-30T03:33:55.491Z,23.81
2023-12-30T03:34:58.315Z,24.29
2023-12-30T03:36:00.249Z,24.31
2023-12-30T03:37:02.115Z,24.11
2023-12-30T03:38:04.281Z,24.17
2023-12-30T03:39:06.509Z,24.23
2023-12-30T03:40:09.092Z,24.14
2023-12-30T03:41:10.866Z,24.32
2023-12-30T03:42:12.599Z,24.40
2023-12-30T03:43:15.057Z,24.11
2023-12-30T03:44:17.385Z,24.00
2023-12-30T03:45:19.097Z,24.20
2023-12-30T03:46:20.889Z,24.25
2023-12-30T03:47:22.646Z,24.23
2023-12-30T03:48:24.432Z,24.45
2023-12-30T03:49:26.416Z,24.23
2023-12-30T03:50:28.268Z,24.43
2023-12-30T03:51:29.988Z,24.39
2023-12-30T03:52:31.773Z,24.10
2023-12-30T03:53:34.385Z,24.37
2023-12-30T03:54:36.203Z,24.06
2023-12-30T03:55:38.144Z,24.30
2023-12-30T03:56:40.848Z,24.07
2023-12-30T03:57:42.606Z,24.19
2023-12-30T03:58:44.318Z,23.98
2023-12-30T03:59:46.329Z,24.26
2023-12-30T04:00:48.670Z,24.40
2023-12-30T04:01:50.690Z,24.09
2023-12-30T04:02:52.680Z,24.17
2023-12-30T04:03:54.587Z,24.41
2023-12-30T04:04:56.841Z,24.11
2023-12-30T04:05:58.575Z,24.46
2023-12-30T04:07:00.390Z,24.45
2023-12-30T04:08:02.347Z,24.30
2023-12-30T04:09:04.136Z,24.18
2023-12-30T04:10:06.637Z,24.45
2023-12-30T04:11:08.529Z,24.18
2023-12-30T04:12:10.951Z,24.41
2023-12-30T04:13:12.785Z,24.29
2023-12-30T04:14:14.546Z,24.19
2023-12-30T04:15:16.558Z,24.43
2023-12-30T04:16:18.423Z,24.06
2023-12-30T04:17:20.263Z,24.15
2023-12-30T04:18:22.056Z,24.63
2023-12-30T04:19:25.778Z,23.99
2023-12-30T04:20:27.639Z,24.26
2023-12-30T04:21:29.495Z,24.33
2023-12-30T04:22:31.344Z,24.33
2023-12-30T04:23:33.190Z,24.18
2023-12-30T04:24:35.059Z,24.23
2023-12-30T04:25:37.310Z,24.11
2023-12-30T04:26:39.177Z,24.47
2023-12-30T04:27:40.886Z,24.39
2023-12-30T04:28:42.605Z,24.33
2023-12-30T04:29:44.338Z,24.36
2023-12-30T04:30:46.595Z,24.46
2023-12-30T04:31:49.238Z,24.42
2023-12-30T04:32:51.171Z,24.39
2023-12-30T04:33:53.131Z,24.45
2023-12-30T04:34:55.061Z,24.20
2023-12-30T04:35:56.858Z,24.34
2023-12-30T04:36:58.591Z,24.33
2023-12-30T04:38:00.448Z,24.44
2023-12-30T04:39:03.067Z,24.46
2023-12-30T04:40:05.345Z,24.25
2023-12-30T04:41:07.284Z,24.29
2023-12-30T04:42:09.078Z,24.45
2023-12-30T04:43:10.937Z,24.15
2023-12-30T04:44:12.839Z,24.49
2023-12-30T04:45:14.815Z,24.40
2023-12-30T04:46:16.841Z,24.43
2023-12-30T04:47:18.681Z,24.32
2023-12-30T04:48:20.626Z,24.24
2023-12-30T04:49:22.598Z,24.17
2023-12-30T04:50:25.029Z,24.23
2023-12-30T04:51:26.986Z,24.26
2023-12-30T04:52:29.537Z,24.56
2023-12-30T04:53:31.420Z,24.02
2023-12-30T04:54:33.225Z,24.31
2023-12-30T04:55:35.091Z,24.40
2023-12-30T04:56:37.061Z,24.45
2023-12-30T04:57:38.968Z,24.42
2023-12-30T04:58:40.723Z,24.63
2023-12-30T04:59:42.475Z,24.55
2023-12-30T05:00:44.275Z,24.40
2023-12-30T05:01:46.217Z,24.59
2023-12-30T05:02:48.666Z,24.44
2023-12-30T05:03:51.548Z,24.49
2023-12-30T05:04:53.383Z,24.50
2023-12-30T05:05:56.974Z,24.36
2023-12-30T05:06:58.849Z,24.45
2023-12-30T05:08:02.817Z,24.57
2023-12-30T05:09:06.586Z,24.45
2023-12-30T05:10:11.230Z,24.34
2023-12-30T05:11:12.976Z,24.30
2023-12-30T05:12:14.735Z,24.26
2023-12-30T05:13:16.556Z,24.50
2023-12-30T05:14:19.837Z,24.37
2023-12-30T05:15:21.565Z,24.43
2023-12-30T05:16:23.672Z,24.55
2023-12-30T05:17:25.486Z,24.48
2023-12-30T05:18:27.297Z,24.43
2023-12-30T05:19:29.153Z,24.52
2023-12-30T05:20:30.959Z,24.41
2023-12-30T05:21:32.771Z,24.33
2023-12-30T05:22:35.047Z,24.46
2023-12-30T05:23:36.756Z,24.49
2023-12-30T05:24:38.492Z,24.38
2023-12-30T05:25:40.218Z,24.33
2023-12-30T05:26:42.081Z,24.45
2023-12-30T05:27:43.881Z,24.34
2023-12-30T05:28:46.198Z,24.29
2023-12-30T05:29:48.232Z,24.61
2023-12-30T05:30:50.232Z,24.25
2023-12-30T05:31:52.123Z,24.48
2023-12-30T05:32:54.043Z,24.50
2023-12-30T05:33:55.983Z,24.24
2023-12-30T05:34:57.974Z,24.31
2023-12-30T05:35:59.959Z,24.22
2023-12-30T05:37:01.860Z,24.38
2023-12-30T05:38:04.529Z,24.50
2023-12-30T05:39:06.613Z,24.44
2023-12-30T05:40:09.819Z,24.18
2023-12-30T05:41:11.726Z,24.54
2023-12-30T05:42:13.518Z,24.25
2023-12-30T05:43:15.449Z,24.37
2023-12-30T05:44:17.260Z,24.53
2023-12-30T05:45:19.038Z,24.20
2023-12-30T05:46:20.820Z,24.56
2023-12-30T05:47:22.606Z,24.25
2023-12-30T05:48:24.746Z,24.20
2023-12-30T05:49:26.650Z,24.49
2023-12-30T05:50:28.963Z,24.53
2023-12-30T05:51:30.657Z,24.64
2023-12-30T05:52:32.720Z,24.23
2023-12-30T05:53:34.585Z,24.60
2023-12-30T05:54:36.380Z,24.49
2023-12-30T05:55:39.827Z,24.31
2023-12-30T05:56:41.857Z,24.17
2023-12-30T05:57:43.616Z,24.44
2023-12-30T05:58:45.441Z,24.59
2023-12-30T05:59:47.477Z,24.33
2023-12-30T06:00:49.441Z,24.49
2023-12-30T06:01:51.324Z,24.37
2023-12-30T06:02:53.440Z,24.20
2023-12-30T06:03:55.326Z,24.30
2023-12-30T06:04:57.988Z,24.25
2023-12-30T06:05:59.879Z,24.33
2023-12-30T06:07:01.792Z,24.17
2023-12-30T06:08:03.825Z,24.42
2023-12-30T06:09:05.550Z,24.25
2023-12-30T06:10:08.401Z,24.17
2023-12-30T06:11:12.170Z,24.20
2023-12-30T06:12:13.912Z,24.27
2023-12-30T06:13:15.800Z,24.37
2023-12-30T06:14:17.638Z,24.01
2023-12-30T06:15:23.185Z,24.18
2023-12-30T06:16:25.055Z,24.44
2023-12-30T06:17:26.886Z,24.29
2023-12-30T06:18:32.591Z,24.32
2023-12-30T06:19:35.781Z,24.37
2023-12-30T06:20:37.678Z,24.28
2023-12-30T06:21:39.564Z,24.12
2023-12-30T06:22:41.306Z,24.36
2023-12-30T06:23:43.075Z,24.33
2023-12-30T06:24:45.369Z,24.20
2023-12-30T06:25:47.571Z,24.33
2023-12-30T06:26:50.458Z,24.29
2023-12-30T06:27:52.229Z,24.31
2023-12-30T06:28:54.212Z,24.29
2023-12-30T06:29:56.030Z,24.21
2023-12-30T06:30:58.116Z,24.30
2023-12-30T06:32:00.119Z,23.99
2023-12-30T06:33:08.307Z,24.07
2023-12-30T06:34:11.274Z,24.36
2023-12-30T06:35:13.077Z,24.10
2023-12-30T06:36:22.398Z,24.32
2023-12-30T06:37:24.288Z,23.92
2023-12-30T06:38:26.035Z,24.36
2023-12-30T06:39:27.793Z,24.19
2023-12-30T06:40:29.603Z,24.13
2023-12-30T06:41:31.573Z,24.04
2023-12-30T06:42:33.254Z,24.25
2023-12-30T06:43:35.062Z,24.08
2023-12-30T06:44:36.848Z,24.28
2023-12-30T06:45:38.770Z,24.04
2023-12-30T06:46:41.892Z,24.12
2023-12-30T06:47:43.784Z,24.32
2023-12-30T06:48:45.571Z,24.26
2023-12-30T06:49:47.396Z,24.31
2023-12-30T06:50:49.156Z,24.11
2023-12-30T06:51:51.098Z,24.10
2023-12-30T06:52:59.554Z,24.12
2023-12-30T06:54:01.473Z,24.38
2023-12-30T06:55:10.897Z,24.19
2023-12-30T06:56:20.672Z,24.06
2023-12-30T06:57:25.660Z,24.00
2023-12-30T06:58:27.698Z,24.23
2023-12-30T06:59:29.584Z,23.92
2023-12-30T07:00:32.387Z,23.92
2023-12-30T07:01:38.784Z,24.36
2023-12-30T07:02:42.774Z,24.29
2023-12-30T07:03:44.610Z,24.05
2023-12-30T07:04:46.648Z,24.15
2023-12-30T07:05:48.592Z,24.01
2023-12-30T07:06:50.401Z,24.42
2023-12-30T07:07:52.183Z,24.12
2023-12-30T07:08:54.039Z,24.31
2023-12-30T07:09:56.000Z,24.33
2023-12-30T07:10:57.778Z,24.29
2023-12-30T07:11:59.751Z,24.07
2023-12-30T07:13:01.612Z,24.04
2023-12-30T07:14:03.653Z,24.03
2023-12-30T07:15:06.000Z,24.35
2023-12-30T07:16:08.044Z,24.01
2023-12-30T07:17:09.899Z,24.13
2023-12-30T07:18:12.834Z,24.18
2023-12-30T07:19:15.534Z,24.14
2023-12-30T07:20:17.789Z,23.90
2023-12-30T07:21:21.041Z,23.87
2023-12-30T07:22:23.446Z,23.93
2023-12-30T07:23:25.202Z,23.74
2023-12-30T07:24:27.203Z,23.70
2023-12-30T07:25:29.357Z,23.84
2023-12-30T07:26:31.126Z,23.88
2023-12-30T07:27:32.829Z,23.51
2023-12-30T07:28:34.613Z,23.89
2023-12-30T07:29:36.380Z,23.61
2023-12-30T07:30:38.177Z,23.68
2023-12-30T07:31:40.739Z,23.60
2023-12-30T07:32:42.623Z,23.34
2023-12-30T07:33:44.490Z,23.58
2023-12-30T07:34:47.208Z,23.15
2023-12-30T07:35:49.071Z,23.46
2023-12-30T07:36:52.242Z,23.03
2023-12-30T07:37:54.300Z,23.42
2023-12-30T07:38:56.029Z,23.40
2023-12-30T07:39:57.866Z,23.42
2023-12-30T07:40:59.681Z,22.91
2023-12-30T07:42:01.557Z,23.22
2023-12-30T07:43:03.722Z,23.02
2023-12-30T07:44:05.913Z,22.66
2023-12-30T07:45:08.321Z,22.91
2023-12-30T07:46:10.666Z,22.86
2023-12-30T07:47:12.386Z,22.86
2023-12-30T07:48:14.369Z,22.68
2023-12-30T07:49:18.416Z,22.75
2023-12-30T07:50:20.368Z,22.65
2023-12-30T07:51:24.743Z,23.01
2023-12-30T07:52:26.888Z,22.46
2023-12-30T07:53:28.644Z,22.77
2023-12-30T07:54:30.347Z,22.61
2023-12-30T07:55:32.165Z,23.03
2023-12-30T07:56:34.436Z,22.47
2023-12-30T07:57:37.120Z,22.57
2023-12-30T07:58:39.143Z,22.44
2023-12-30T07:59:41.488Z,22.51
2023-12-30T08:00:44.853Z,22.79
2023-12-30T08:01:47.530Z,22.67
2023-12-30T08:02:49.273Z,22.35
2023-12-30T08:03:51.046Z,22.22
2023-12-30T08:04:55.658Z,22.57
2023-12-30T08:05:57.493Z,22.47
2023-12-30T08:06:59.293Z,22.12
2023-12-30T08:08:01.389Z,22.20
2023-12-30T08:09:05.479Z,22.30
2023-12-30T08:10:07.710Z,22.38
2023-12-30T08:11:09.466Z,22.18
2023-12-30T08:12:11.202Z,22.54
2023-12-30T08:13:13.158Z,22.19
2023-12-30T08:14:16.215Z,22.47
2023-12-30T08:15:18.355Z,22.09
2023-12-30T08:16:20.204Z,22.57
2023-12-30T08:17:22.011Z,22.04
2023-12-30T08:18:23.907Z,22.42
2023-12-30T08:19:25.756Z,22.58
2023-12-30T08:20:27.623Z,22.08
2023-12-30T08:21:29.780Z,22.24
2023-12-30T08:22:31.635Z,22.43
2023-12-30T08:23:33.360Z,22.22
2023-12-30T08:24:35.040Z,22.19
2023-12-30T08:25:37.480Z,22.38
2023-12-30T08:26:39.181Z,22.05
2023-12-30T08:27:41.003Z,22.33
2023-12-30T08:28:43.342Z,22.04
2023-12-30T08:29:45.206Z,22.22
2023-12-30T08:30:47.805Z,22.02
2023-12-30T08:31:49.573Z,22.44
2023-12-30T08:32:51.358Z,22.34
2023-12-30T08:33:53.304Z,22.03
2023-12-30T08:34:55.767Z,22.00
2023-12-30T08:35:57.901Z,22.34
2023-12-30T08:37:00.087Z,21.79
2023-12-30T08:38:02.145Z,21.95
2023-12-30T08:39:03.978Z,22.14
2023-12-30T08:40:12.367Z,22.36
2023-12-30T08:41:16.071Z,21.93
2023-12-30T08:42:17.943Z,22.05
2023-12-30T08:43:19.690Z,22.04
2023-12-30T08:44:21.454Z,22.05
2023-12-30T08:45:23.556Z,22.30
2023-12-30T08:46:25.510Z,22.30
2023-12-30T08:47:29.866Z,22.10
2023-12-30T08:48:31.754Z,22.28
2023-12-30T08:49:33.776Z,22.24
2023-12-30T08:50:35.604Z,22.13
2023-12-30T08:51:37.710Z,22.30
2023-12-30T08:52:39.946Z,22.13
2023-12-30T08:53:41.683Z,22.25
2023-12-30T08:54:43.378Z,22.39
2023-12-30T08:55:45.211Z,22.33
2023-12-30T08:56:47.191Z,21.86
2023-12-30T08:57:49.616Z,21.93
2023-12-30T08:58:51.408Z,22.17
2023-12-30T08:59:53.165Z,22.13
2023-12-30T09:00:55.124Z,22.31
2023-12-30T09:01:56.959Z,21.84
2023-12-30T09:02:59.018Z,22.08
2023-12-30T09:04:01.409Z,22.01
2023-12-30T09:05:04.295Z,22.08
2023-12-30T09:06:06.784Z,21.97
2023-12-30T09:07:08.629Z,21.94
2023-12-30T09:08:10.829Z,22.23
2023-12-30T09:09:13.304Z,22.20
2023-12-30T09:10:15.250Z,22.19
2023-12-30T09:11:24.523Z,22.08
2023-12-30T09:12:26.664Z,22.12
2023-12-30T09:13:28.429Z,21.80
2023-12-30T09:14:30.315Z,22.17
2023-12-30T09:15:32.177Z,21.90
2023-12-30T09:16:34.579Z,22.07
2023-12-30T09:17:36.577Z,22.21
2023-12-30T09:18:38.569Z,22.12
2023-12-30T09:19:40.498Z,21.94
2023-12-30T09:20:42.582Z,21.97
2023-12-30T09:21:44.322Z,22.36
2023-12-30T09:22:46.086Z,21.86
2023-12-30T09:23:48.003Z,21.98
2023-12-30T09:24:50.296Z,22.09
2023-12-30T09:25:52.052Z,21.87
2023-12-30T09:26:53.860Z,22.33
2023-12-30T09:27:55.617Z,22.00
2023-12-30T09:28:57.558Z,22.01
2023-12-30T09:29:59.275Z,21.94
2023-12-30T09:31:01.284Z,22.13
2023-12-30T09:32:04.045Z,22.09
2023-12-30T09:33:08.274Z,21.69
2023-12-30T09:34:12.117Z,22.11
2023-12-30T09:35:14.456Z,21.72
2023-12-30T09:36:19.936Z,22.00
2023-12-30T09:37:21.767Z,21.65
2023-12-30T09:38:27.162Z,21.82
2023-12-30T09:39:28.976Z,21.93
2023-12-30T09:40:31.130Z,21.76
2023-12-30T09:41:33.364Z,21.77
2023-12-30T09:42:36.278Z,21.65
2023-12-30T09:43:38.670Z,21.84
2023-12-30T09:44:41.270Z,22.02
2023-12-30T09:45:43.121Z,21.66
2023-12-30T09:46:48.343Z,21.72
2023-12-30T09:47:51.483Z,21.77
2023-12-30T09:48:56.445Z,21.87
2023-12-30T09:49:58.235Z,22.04
2023-12-30T09:50:59.960Z,22.15
2023-12-30T09:52:04.616Z,22.00
2023-12-30T09:53:06.678Z,21.95
2023-12-30T09:54:08.775Z,21.71
2023-12-30T09:55:10.940Z,22.04
2023-12-30T09:56:13.968Z,21.83
2023-12-30T09:57:15.896Z,21.69
2023-12-30T09:58:19.507Z,21.88
2023-12-30T09:59:21.599Z,21.88
2023-12-30T10:00:27.363Z,21.77
2023-12-30T10:01:31.243Z,22.15
2023-12-30T10:02:34.729Z,21.97
2023-12-30T10:03:37.193Z,22.06
2023-12-30T10:04:39.113Z,22.09
2023-12-30T10:05:41.431Z,22.03
2023-12-30T10:06:44.312Z,21.86
2023-12-30T10:07:46.124Z,21.76
2023-12-30T10:08:49.544Z,21.94
2023-12-30T10:09:53.156Z,21.62
2023-12-30T10:10:55.411Z,21.73
2023-12-30T10:11:58.829Z,21.89
2023-12-30T10:13:00.928Z,22.01
2023-12-30T10:14:03.576Z,21.99
2023-12-30T10:15:05.999Z,21.97
2023-12-30T10:16:08.014Z,21.63
2023-12-30T10:17:10.086Z,21.62
2023-12-30T10:18:14.184Z,21.88
2023-12-30T10:19:17.740Z,21.55
2023-12-30T10:20:24.659Z,21.65
2023-12-30T10:21:26.578Z,21.87
2023-12-30T10:22:28.502Z,21.98
2023-12-30T10:23:31.819Z,21.93
2023-12-30T10:24:33.610Z,21.74
2023-12-30T10:25:36.284Z,21.55
2023-12-30T10:26:41.005Z,21.77
2023-12-30T10:27:42.991Z,21.56
2023-12-30T10:28:45.855Z,21.74
2023-12-30T10:30:00.233Z,21.68
2023-12-30T10:31:08.021Z,21.62
2023-12-30T10:32:11.837Z,21.84
2023-12-30T10:33:15.626Z,21.81
2023-12-30T10:34:21.555Z,21.57
2023-12-30T10:35:25.110Z,21.30
2023-12-30T10:36:30.422Z,21.68
2023-12-30T10:37:32.297Z,21.45
2023-12-30T10:38:36.153Z,21.85
2023-12-30T10:39:42.852Z,21.65
2023-12-30T10:40:46.100Z,21.89
2023-12-30T10:41:47.922Z,21.58
2023-12-30T10:42:49.817Z,21.49
2023-12-30T10:43:51.727Z,21.85
2023-12-30T10:44:53.645Z,21.73
2023-12-30T10:46:01.213Z,21.88
2023-12-30T10:47:05.377Z,21.56
2023-12-30T10:48:08.376Z,21.44
2023-12-30T10:49:15.495Z,21.49
2023-12-30T10:50:17.524Z,21.70
2023-12-30T10:51:27.592Z,21.50
2023-12-30T10:52:30.155Z,21.19
2023-12-30T10:53:41.663Z,21.70
2023-12-30T10:54:54.385Z,21.47
2023-12-30T10:56:01.083Z,21.61
2023-12-30T10:57:06.433Z,21.69
2023-12-30T10:58:16.325Z,21.65
2023-12-30T10:59:19.656Z,21.72
2023-12-30T11:00:22.124Z,21.63
2023-12-30T11:01:25.650Z,21.37
2023-12-30T11:02:28.010Z,21.83
2023-12-30T11:03:32.806Z,21.41
2023-12-30T11:04:34.819Z,21.39
2023-12-30T11:05:49.914Z,21.66
2023-12-30T11:06:55.987Z,21.36
2023-12-30T11:07:58.162Z,21.54
2023-12-30T11:09:02.268Z,21.64
2023-12-30T11:10:16.660Z,21.67
2023-12-30T11:11:20.409Z,21.53
2023-12-30T11:12:22.347Z,21.33
2023-12-30T11:13:24.793Z,21.63
2023-12-30T11:14:26.712Z,21.60
2023-12-30T11:15:31.053Z,21.68
2023-12-30T11:16:34.269Z,21.30
2023-12-30T11:17:37.039Z,21.68
2023-12-30T11:18:49.525Z,21.31
2023-12-30T11:19:51.791Z,21.68
2023-12-30T11:20:53.625Z,21.48
2023-12-30T11:21:57.102Z,21.41
2023-12-30T11:23:04.702Z,21.38
2023-12-30T11:24:08.986Z,21.66
2023-12-30T11:25:10.770Z,21.32
2023-12-30T11:26:14.330Z,21.28
2023-12-30T11:27:17.876Z,21.50
2023-12-30T11:28:23.812Z,21.67
2023-12-30T11:29:29.716Z,21.64
2023-12-30T11:30:32.757Z,21.32
2023-12-30T11:31:38.921Z,21.30
2023-12-30T11:32:41.772Z,21.27
2023-12-30T11:33:43.677Z,21.63
2023-12-30T11:34:45.447Z,21.35
2023-12-30T11:35:50.052Z,21.51
2023-12-30T11:36:53.593Z,21.58
2023-12-30T11:37:58.705Z,21.64
2023-12-30T11:39:01.671Z,21.47
2023-12-30T11:40:06.013Z,21.40
2023-12-30T11:41:07.992Z,21.25
2023-12-30T11:42:09.936Z,21.28
2023-12-30T11:43:12.337Z,21.33
2023-12-30T11:44:14.264Z,21.64
2023-12-30T11:45:16.219Z,21.38
2023-12-30T11:46:18.758Z,21.49
2023-12-30T11:47:24.099Z,21.36
2023-12-30T11:48:26.068Z,21.44
2023-12-30T11:49:28.261Z,21.58
2023-12-30T11:50:30.055Z,21.37
2023-12-30T11:51:33.106Z,21.51
2023-12-30T11:52:40.893Z,21.43
2023-12-30T11:53:42.712Z,21.58
2023-12-30T11:54:44.656Z,21.49
2023-12-30T11:55:46.911Z,21.13
2023-12-30T11:56:49.130Z,21.54
2023-12-30T11:57:52.316Z,21.53
2023-12-30T11:58:55.114Z,21.52
2023-12-30T11:59:56.887Z,21.33
2023-12-30T12:00:58.829Z,21.56
2023-12-30T12:02:13.142Z,21.31
2023-12-30T12:03:15.341Z,21.26
2023-12-30T12:04:17.182Z,21.53
2023-12-30T12:05:19.271Z,21.21
2023-12-30T12:06:21.499Z,21.48
2023-12-30T12:07:23.420Z,21.48
2023-12-30T12:08:25.245Z,21.56
2023-12-30T12:09:27.142Z,21.36
2023-12-30T12:10:29.022Z,21.30
2023-12-30T12:11:31.113Z,21.16
2023-12-30T12:12:43.418Z,21.34
2023-12-30T12:13:47.082Z,21.44
2023-12-30T12:14:50.451Z,21.40
2023-12-30T12:15:53.400Z,21.15
2023-12-30T12:16:55.107Z,21.54
2023-12-30T12:17:57.519Z,21.46
2023-12-30T12:19:03.244Z,21.29
2023-12-30T12:20:09.588Z,21.25
2023-12-30T12:21:15.139Z,21.23
2023-12-30T12:22:16.978Z,21.23
2023-12-30T12:23:19.447Z,21.25
2023-12-30T12:24:21.209Z,21.52
2023-12-30T12:25:23.498Z,21.39
2023-12-30T12:26:26.180Z,21.22
2023-12-30T12:27:28.013Z,21.37
2023-12-30T12:28:29.944Z,21.77
2023-12-30T12:29:31.792Z,21.20
2023-12-30T12:30:33.510Z,21.67
2023-12-30T12:31:35.449Z,21.39
2023-12-30T12:32:37.502Z,21.17
2023-12-30T12:33:40.011Z,21.48
2023-12-30T12:34:42.591Z,21.45
2023-12-30T12:35:45.115Z,21.36
2023-12-30T12:36:47.491Z,21.43
2023-12-30T12:37:49.396Z,21.33
2023-12-30T12:38:51.664Z,21.19
2023-12-30T12:39:54.178Z,21.24
2023-12-30T12:40:56.205Z,21.29
2023-12-30T12:41:58.029Z,21.10
2023-12-30T12:43:00.589Z,21.33
2023-12-30T12:44:02.775Z,21.36
2023-12-30T12:45:04.999Z,21.12
2023-12-30T12:46:06.741Z,20.92
2023-12-30T12:47:10.470Z,21.24
2023-12-30T12:48:12.864Z,21.40
2023-12-30T12:49:15.872Z,21.28
2023-12-30T12:50:17.941Z,21.15
2023-12-30T12:51:19.794Z,21.04
2023-12-30T12:52:21.534Z,21.10
2023-12-30T12:53:24.726Z,21.49
2023-12-30T12:54:26.574Z,21.33
2023-12-30T12:55:28.412Z,21.24
2023-12-30T12:56:30.148Z,21.19
2023-12-30T12:57:32.371Z,21.28
2023-12-30T12:58:34.325Z,21.19
2023-12-30T12:59:36.063Z,21.32
2023-12-30T13:00:38.740Z,21.30
2023-12-30T13:01:40.861Z,21.11
2023-12-30T13:02:42.676Z,21.15
2023-12-30T13:03:44.580Z,21.17
2023-12-30T13:04:46.905Z,21.28
2023-12-30T13:05:49.342Z,21.41
2023-12-30T13:06:51.204Z,21.43
2023-12-30T13:07:52.956Z,21.25
2023-12-30T13:08:57.614Z,21.15
2023-12-30T13:10:22.241Z,21.05
2023-12-30T13:11:33.345Z,21.58
2023-12-30T13:12:35.199Z,20.85
2023-12-30T13:13:37.035Z,21.01
2023-12-30T13:14:38.813Z,21.21
2023-12-30T13:15:40.811Z,21.31
2023-12-30T13:16:42.702Z,21.39
2023-12-30T13:17:45.846Z,21.21
2023-12-30T13:18:48.337Z,21.31
2023-12-30T13:19:50.807Z,21.10
2023-12-30T13:20:52.880Z,21.38
2023-12-30T13:21:54.842Z,21.19
2023-12-30T13:22:58.461Z,21.16
2023-12-30T13:24:00.364Z,21.00
2023-12-30T13:25:02.259Z,21.08
2023-12-30T13:26:05.441Z,21.11
2023-12-30T13:27:08.113Z,21.33